createdAt,value
2023-03-22T00:02:02.172Z,5.27
2023-03-22T00:04:28.612Z,5.36
2023-03-22T00:06:55.312Z,5.40
2023-03-22T00:09:21.741Z,5.45
2023-03-22T00:11:50.850Z,5.55
2023-03-22T00:14:20.226Z,5.53
2023-03-22T00:16:47.138Z,5.57
2023-03-22T00:19:13.481Z,5.50
2023-03-22T00:21:39.864Z,5.56
2023-03-22T00:24:06.615Z,5.52
2023-03-22T00:26:33.146Z,5.53
2023-03-22T00:28:59.959Z,5.53
2023-03-22T00:31:26.352Z,5.46
2023-03-22T00:33:52.751Z,5.55
2023-03-22T00:36:19.130Z,5.60
2023-03-22T00:38:45.491Z,5.49
2023-03-22T00:41:21.012Z,5.43
2023-03-22T00:43:48.288Z,5.46
2023-03-22T00:46:16.225Z,5.35
2023-03-22T00:48:43.421Z,5.23
2023-03-22T00:51:10.570Z,5.27
2023-03-22T00:53:37.488Z,5.19
2023-03-22T00:56:07.165Z,5.24
2023-03-22T00:58:33.812Z,5.25
2023-03-22T01:01:00.254Z,5.24
2023-03-22T01:03:26.668Z,5.21
2023-03-22T01:05:56.726Z,5.15
2023-03-22T01:08:24.304Z,5.28
2023-03-22T01:10:51.122Z,5.28
2023-03-22T01:13:18.117Z,5.26
2023-03-22T01:15:45.004Z,5.15
2023-03-22T01:18:11.554Z,5.13
2023-03-22T01:20:38.334Z,5.23
2023-03-22T01:23:05.010Z,5.28
2023-03-22T01:25:31.440Z,5.22
2023-03-22T01:27:57.906Z,5.20
2023-03-22T01:30:24.315Z,5.08
2023-03-22T01:32:50.703Z,5.03
2023-03-22T01:35:17.129Z,5.08
2023-03-22T01:37:43.492Z,5.06
2023-03-22T01:40:12.177Z,5.05
2023-03-22T01:42:38.842Z,5.12
2023-03-22T01:45:14.280Z,5.10
2023-03-22T01:48:09.789Z,5.02
2023-03-22T01:50:38.974Z,4.99
2023-03-22T01:53:08.069Z,4.94
2023-03-22T01:55:34.742Z,4.99
2023-03-22T01:58:02.155Z,4.97
2023-03-22T02:00:29.085Z,4.85
2023-03-22T02:02:55.631Z,4.87
2023-03-22T02:05:22.408Z,4.93
2023-03-22T02:07:50.080Z,4.89
2023-03-22T02:10:22.244Z,4.96
2023-03-22T02:13:05.365Z,4.94
2023-03-22T02:15:49.109Z,4.92
2023-03-22T02:18:21.498Z,5.00
2023-03-22T02:20:58.556Z,4.97
2023-03-22T02:23:51.018Z,5.07
2023-03-22T02:27:06.403Z,4.98
2023-03-22T02:29:38.672Z,5.06
2023-03-22T02:32:23.139Z,5.06
2023-03-22T02:35:13.796Z,5.11
2023-03-22T02:37:58.202Z,5.01
2023-03-22T02:40:36.803Z,4.99
2023-03-22T02:43:19.994Z,5.04
2023-03-22T02:45:59.134Z,4.92
2023-03-22T02:48:32.384Z,4.99
2023-03-22T02:51:15.716Z,4.91
2023-03-22T02:53:54.437Z,5.10
2023-03-22T02:56:31.430Z,5.06
2023-03-22T02:59:02.367Z,5.11
2023-03-22T03:01:33.173Z,5.11
2023-03-22T03:04:04.864Z,4.95
2023-03-22T03:06:38.924Z,5.05
2023-03-22T03:09:07.037Z,5.08
2023-03-22T03:11:33.717Z,4.78
2023-03-22T03:14:00.164Z,4.79
2023-03-22T03:16:30.686Z,4.85
2023-03-22T03:19:04.032Z,4.81
2023-03-22T03:22:18.732Z,4.81
2023-03-22T03:24:51.973Z,4.76
2023-03-22T03:27:27.322Z,4.81
2023-03-22T03:30:04.760Z,4.81
2023-03-22T03:32:52.603Z,4.92
2023-03-22T03:35:29.397Z,4.99
2023-03-22T03:38:02.527Z,5.07
2023-03-22T03:40:32.198Z,5.23
2023-03-22T03:43:02.510Z,5.22
2023-03-22T03:45:29.724Z,5.30
2023-03-22T03:48:00.314Z,5.36
2023-03-22T03:50:27.912Z,5.48
2023-03-22T03:52:55.591Z,5.55
2023-03-22T03:55:23.058Z,5.55
2023-03-22T03:57:49.435Z,5.57
2023-03-22T04:00:16.832Z,5.62
2023-03-22T04:02:44.220Z,5.56
2023-03-22T04:05:12.175Z,5.64
2023-03-22T04:07:39.081Z,5.67
2023-03-22T04:10:06.407Z,5.64
2023-03-22T04:12:33.388Z,5.54
2023-03-22T04:15:00.313Z,5.63
2023-03-22T04:17:29.085Z,5.81
2023-03-22T04:19:56.502Z,5.93
2023-03-22T04:22:26.695Z,6.08
2023-03-22T04:24:53.154Z,6.02
2023-03-22T04:27:21.411Z,6.14
2023-03-22T04:29:50.769Z,6.15
2023-03-22T04:32:22.917Z,6.23
2023-03-22T04:34:50.285Z,6.32
2023-03-22T04:37:18.131Z,6.39
2023-03-22T04:39:45.282Z,6.42
2023-03-22T04:42:12.232Z,6.35
2023-03-22T04:44:38.613Z,6.25
2023-03-22T04:47:05.025Z,6.23
2023-03-22T04:49:31.631Z,6.27
2023-03-22T04:51:58.200Z,6.27
2023-03-22T04:54:24.719Z,6.37
2023-03-22T04:56:51.152Z,6.39
2023-03-22T04:59:20.227Z,6.56
2023-03-22T05:01:47.625Z,6.56
2023-03-22T05:04:14.850Z,6.66
2023-03-22T05:06:41.241Z,6.70
2023-03-22T05:09:08.124Z,6.66
2023-03-22T05:11:34.852Z,6.66
2023-03-22T05:14:01.228Z,6.73
2023-03-22T05:16:27.737Z,6.76
2023-03-22T05:18:54.458Z,6.84
2023-03-22T05:21:28.284Z,6.83
2023-03-22T05:23:58.959Z,6.77
2023-03-22T05:26:26.512Z,6.75
2023-03-22T05:28:54.026Z,6.65
2023-03-22T05:31:23.368Z,6.57
2023-03-22T05:33:51.132Z,6.46
2023-03-22T05:36:22.875Z,6.34
2023-03-22T05:38:49.809Z,6.24
2023-03-22T05:41:16.316Z,6.13
2023-03-22T05:43:42.681Z,6.10
2023-03-22T05:46:10.560Z,6.06
2023-03-22T05:48:38.360Z,5.97
2023-03-22T05:51:09.627Z,6.01
2023-03-22T05:53:36.109Z,5.85
2023-03-22T05:56:02.728Z,5.93
2023-03-22T05:58:30.984Z,5.92
2023-03-22T06:01:00.957Z,5.87
2023-03-22T06:03:28.306Z,5.99
2023-03-22T06:05:54.955Z,6.07
2023-03-22T06:08:24.131Z,6.16
2023-03-22T06:10:52.593Z,6.19
2023-03-22T06:13:20.287Z,6.27
2023-03-22T06:15:46.913Z,6.19
2023-03-22T06:18:13.783Z,6.19
2023-03-22T06:20:40.465Z,6.31
2023-03-22T06:23:07.528Z,6.39
2023-03-22T06:25:33.884Z,6.45
2023-03-22T06:28:00.459Z,6.49
2023-03-22T06:30:27.066Z,6.64
2023-03-22T06:32:54.859Z,6.92
2023-03-22T06:35:21.338Z,7.06
2023-03-22T06:37:47.746Z,7.17
2023-03-22T06:40:14.570Z,7.39
2023-03-22T06:42:41.033Z,7.28
2023-03-22T06:45:08.678Z,7.45
2023-03-22T06:47:35.106Z,7.42
2023-03-22T06:50:01.834Z,7.48
2023-03-22T06:52:28.210Z,7.58
2023-03-22T06:54:54.886Z,7.67
2023-03-22T06:57:21.477Z,7.67
2023-03-22T06:59:47.875Z,7.94
2023-03-22T07:02:14.447Z,8.07
2023-03-22T07:04:40.919Z,8.11
2023-03-22T07:07:07.273Z,8.33
2023-03-22T07:09:33.931Z,8.32
2023-03-22T07:12:00.447Z,8.63
2023-03-22T07:14:26.918Z,8.69
2023-03-22T07:16:53.267Z,8.82
2023-03-22T07:19:19.718Z,9.03
2023-03-22T07:21:46.105Z,9.30
2023-03-22T07:24:13.530Z,9.66
2023-03-22T07:26:40.716Z,10.25
2023-03-22T07:29:07.169Z,10.58
2023-03-22T07:31:37.652Z,11.11
2023-03-22T07:34:04.476Z,11.30
2023-03-22T07:36:31.075Z,11.53
2023-03-22T07:38:57.726Z,11.30
2023-03-22T07:41:25.720Z,11.20
2023-03-22T07:43:58.253Z,10.82
2023-03-22T07:46:28.815Z,10.51
2023-03-22T07:48:56.322Z,10.49
2023-03-22T07:51:22.714Z,10.04
2023-03-22T07:53:49.161Z,9.81
2023-03-22T07:56:15.598Z,9.58
2023-03-22T07:58:42.037Z,9.60
2023-03-22T08:01:09.008Z,9.64
2023-03-22T08:03:36.386Z,9.73
2023-03-22T08:06:08.094Z,9.77
2023-03-22T08:08:36.757Z,9.81
2023-03-22T08:11:04.943Z,9.85
2023-03-22T08:13:31.929Z,9.95
2023-03-22T08:15:58.557Z,10.06
2023-03-22T08:18:24.962Z,9.99
2023-03-22T08:20:58.965Z,9.87
2023-03-22T08:23:40.158Z,9.73
2023-03-22T08:26:07.380Z,9.71
2023-03-22T08:28:33.840Z,9.68
2023-03-22T08:31:00.266Z,9.60
2023-03-22T08:33:26.963Z,9.67
2023-03-22T08:36:07.871Z,9.54
2023-03-22T08:38:34.285Z,9.61
2023-03-22T08:41:00.672Z,9.68
2023-03-22T08:43:27.048Z,9.66
2023-03-22T08:45:53.511Z,9.80
2023-03-22T08:48:19.961Z,9.77
2023-03-22T08:50:46.431Z,9.89
2023-03-22T08:53:13.845Z,9.84
2023-03-22T08:55:44.923Z,9.98
2023-03-22T08:58:12.970Z,10.13
2023-03-22T09:00:48.484Z,10.26
2023-03-22T09:03:16.152Z,10.37
2023-03-22T09:05:42.574Z,10.70
2023-03-22T09:08:08.962Z,10.99
2023-03-22T09:10:39.030Z,11.09
2023-03-22T09:13:06.014Z,10.87
2023-03-22T09:15:32.432Z,10.99
2023-03-22T09:17:58.794Z,11.01
2023-03-22T09:20:25.871Z,10.89
2023-03-22T09:22:52.576Z,10.83
2023-03-22T09:25:18.939Z,10.72
2023-03-22T09:27:45.840Z,10.62
2023-03-22T09:30:12.491Z,10.60
2023-03-22T09:32:41.683Z,10.68
2023-03-22T09:35:08.346Z,10.75
2023-03-22T09:37:35.071Z,10.77
2023-03-22T09:40:01.548Z,10.90
2023-03-22T09:42:42.214Z,10.94
2023-03-22T09:45:16.469Z,10.82
2023-03-22T09:47:46.609Z,10.99
2023-03-22T09:50:19.920Z,10.96
2023-03-22T09:52:46.747Z,11.16
2023-03-22T09:55:18.966Z,11.29
2023-03-22T09:57:53.212Z,11.33
2023-03-22T10:00:30.939Z,11.32
2023-03-22T10:03:19.086Z,11.45
2023-03-22T10:05:55.858Z,11.43
2023-03-22T10:08:22.259Z,11.52
2023-03-22T10:10:49.146Z,11.54
2023-03-22T10:13:46.256Z,11.49
2023-03-22T10:16:25.704Z,11.55
2023-03-22T10:18:56.202Z,11.69
2023-03-22T10:21:23.103Z,11.78
2023-03-22T10:23:57.016Z,11.89
2023-03-22T10:26:33.475Z,11.95
2023-03-22T10:29:05.872Z,11.96
2023-03-22T10:31:34.428Z,12.11
2023-03-22T10:34:08.000Z,12.18
2023-03-22T10:36:38.584Z,12.21
2023-03-22T10:39:16.597Z,12.27
2023-03-22T10:41:44.013Z,12.23
2023-03-22T10:44:17.555Z,12.36
2023-03-22T10:46:45.179Z,12.29
2023-03-22T10:49:26.019Z,12.27
2023-03-22T10:51:57.267Z,12.22
2023-03-22T10:54:26.220Z,12.23
2023-03-22T10:56:52.847Z,12.26
2023-03-22T10:59:47.160Z,12.33
2023-03-22T11:02:17.862Z,12.35
2023-03-22T11:04:52.957Z,12.23
2023-03-22T11:07:39.902Z,12.22
2023-03-22T11:10:09.188Z,12.44
2023-03-22T11:12:40.024Z,12.55
2023-03-22T11:15:18.144Z,12.54
2023-03-22T11:17:44.588Z,12.50
2023-03-22T11:20:17.523Z,12.30
2023-03-22T11:22:47.008Z,12.31
2023-03-22T11:25:26.536Z,12.22
2023-03-22T11:27:57.709Z,12.37
2023-03-22T11:30:26.833Z,12.39
2023-03-22T11:33:16.758Z,12.63
2023-03-22T11:35:46.075Z,12.71
2023-03-22T11:38:29.416Z,12.86
2023-03-22T11:41:00.283Z,13.08
2023-03-22T11:43:32.681Z,13.24
2023-03-22T11:46:00.690Z,13.47
2023-03-22T11:48:30.509Z,13.52
2023-03-22T11:51:10.686Z,13.56
2023-03-22T11:53:43.671Z,13.65
2023-03-22T11:56:12.849Z,13.62
2023-03-22T11:58:39.138Z,13.61
2023-03-22T12:01:09.609Z,13.56
2023-03-22T12:03:40.116Z,13.60
2023-03-22T12:06:40.452Z,13.64
2023-03-22T12:09:18.942Z,13.76
2023-03-22T12:11:49.540Z,13.70
2023-03-22T12:14:21.689Z,13.69
2023-03-22T12:16:52.504Z,13.69
2023-03-22T12:19:26.975Z,13.83
2023-03-22T12:21:54.890Z,13.93
2023-03-22T12:24:31.311Z,14.07
2023-03-22T12:27:21.202Z,14.03
2023-03-22T12:29:54.781Z,14.04
2023-03-22T12:32:28.266Z,13.98
2023-03-22T12:35:05.465Z,14.00
2023-03-22T12:37:45.051Z,13.88
2023-03-22T12:40:37.597Z,13.88
2023-03-22T12:43:34.450Z,13.81
2023-03-22T12:46:04.172Z,13.71
2023-03-22T12:48:37.531Z,13.71
2023-03-22T12:51:11.655Z,13.76
2023-03-22T12:53:48.308Z,13.75
2023-03-22T12:56:18.962Z,13.83
2023-03-22T12:58:56.280Z,13.77
2023-03-22T13:01:28.678Z,13.87
2023-03-22T13:03:57.365Z,13.73
2023-03-22T13:06:33.057Z,13.65
2023-03-22T13:09:16.211Z,13.38
2023-03-22T13:11:48.906Z,13.53
2023-03-22T13:14:52.641Z,13.60
2023-03-22T13:17:22.102Z,13.66
2023-03-22T13:20:06.791Z,13.68
2023-03-22T13:22:36.312Z,13.68
2023-03-22T13:25:28.935Z,13.61
2023-03-22T13:28:15.297Z,13.66
2023-03-22T13:30:47.683Z,13.60
2023-03-22T13:33:21.191Z,13.49
2023-03-22T13:35:52.490Z,13.51
2023-03-22T13:38:25.412Z,13.42
2023-03-22T13:40:59.654Z,13.41
2023-03-22T13:43:31.957Z,13.41
2023-03-22T13:46:13.665Z,13.45
2023-03-22T13:48:50.616Z,13.49
2023-03-22T13:51:26.387Z,13.52
2023-03-22T13:53:58.210Z,13.46
2023-03-22T13:56:52.498Z,13.28
2023-03-22T13:59:25.568Z,13.35
2023-03-22T14:02:26.726Z,13.41
2023-03-22T14:04:56.242Z,13.35
2023-03-22T14:07:27.238Z,13.33
2023-03-22T14:09:59.904Z,13.27
2023-03-22T14:12:36.907Z,13.28
2023-03-22T14:15:06.701Z,13.26
2023-03-22T14:17:36.117Z,13.24
2023-03-22T14:20:08.527Z,13.25
